createdAt,value
2023-04-11T00:00:18.470Z,10.18
2023-04-11T00:03:21.172Z,10.25
2023-04-11T00:06:27.869Z,10.30
2023-04-11T00:09:30.119Z,11.30
2023-04-11T00:12:34.688Z,9.23
2023-04-11T00:15:37.717Z,10.35
2023-04-11T00:18:45.106Z,10.32
2023-04-11T00:21:47.363Z,10.50
2023-04-11T00:24:49.796Z,9.05
2023-04-11T00:27:52.095Z,9.80
2023-04-11T00:30:54.475Z,9.63
2023-04-11T00:33:56.807Z,10.65
2023-04-11T00:36:59.162Z,8.40
2023-04-11T00:40:01.475Z,12.15
2023-04-11T00:43:03.846Z,10.18
2023-04-11T00:46:06.555Z,7.63
2023-04-11T00:49:09.697Z,9.77
2023-04-11T00:52:13.936Z,9.45
2023-04-11T00:55:16.557Z,9.25
2023-04-11T00:58:18.923Z,9.65
2023-04-11T01:01:25.286Z,9.48
2023-04-11T01:04:29.609Z,9.82
2023-04-11T01:07:33.262Z,8.77
2023-04-11T01:10:35.991Z,8.27
2023-04-11T01:13:41.620Z,8.18
2023-04-11T01:16:47.232Z,8.38
2023-04-11T01:19:49.762Z,9.27
2023-04-11T01:22:52.747Z,12.27
2023-04-11T01:25:55.025Z,10.20
2023-04-11T01:28:57.953Z,9.48
2023-04-11T01:32:00.640Z,10.38
2023-04-11T01:35:05.592Z,11.15
2023-04-11T01:38:08.529Z,9.25
2023-04-11T01:41:12.324Z,9.02
2023-04-11T01:44:14.693Z,10.65
2023-04-11T01:47:16.991Z,11.77
2023-04-11T01:50:19.337Z,9.18
2023-04-11T01:53:21.773Z,8.18
2023-04-11T01:56:24.174Z,7.80
2023-04-11T01:59:26.523Z,7.47
2023-04-11T02:02:29.030Z,7.95
2023-04-11T02:05:31.378Z,9.18
2023-04-11T02:08:33.737Z,8.75
2023-04-11T02:11:36.066Z,8.85
2023-04-11T02:14:47.488Z,8.48
2023-04-11T02:17:49.802Z,7.45
2023-04-11T02:20:53.420Z,9.40
2023-04-11T02:23:56.200Z,8.88
2023-04-11T02:26:58.480Z,9.82
2023-04-11T02:30:05.882Z,9.98
2023-04-11T02:33:08.247Z,10.20
2023-04-11T02:36:12.624Z,10.02
2023-04-11T02:39:15.682Z,11.02
2023-04-11T02:42:18.038Z,9.57
2023-04-11T02:45:20.931Z,8.82
2023-04-11T02:48:23.564Z,10.25
2023-04-11T02:51:26.158Z,8.55
2023-04-11T02:54:28.783Z,8.15
2023-04-11T02:57:33.679Z,8.38
2023-04-11T03:00:37.973Z,10.75
2023-04-11T03:03:43.820Z,11.52
2023-04-11T03:06:47.356Z,8.80
2023-04-11T03:09:50.802Z,8.23
2023-04-11T03:12:53.114Z,8.95
2023-04-11T03:15:55.674Z,9.55
2023-04-11T03:19:01.648Z,8.52
2023-04-11T03:22:05.512Z,9.27
2023-04-11T03:25:08.242Z,10.80
2023-04-11T03:28:11.466Z,7.68
2023-04-11T03:31:14.185Z,10.05
2023-04-11T03:34:18.291Z,9.68
2023-04-11T03:37:20.864Z,8.75
2023-04-11T03:40:23.454Z,8.98
2023-04-11T03:43:33.193Z,9.45
2023-04-11T03:46:36.807Z,9.85
2023-04-11T03:49:39.331Z,8.70
2023-04-11T03:52:42.380Z,9.85
2023-04-11T03:55:49.338Z,8.07
2023-04-11T03:58:54.078Z,8.98
2023-04-11T04:02:00.086Z,7.95
2023-04-11T04:05:02.965Z,8.77
2023-04-11T04:08:08.779Z,8.68
2023-04-11T04:11:22.964Z,9.13
2023-04-11T04:14:26.898Z,7.28
2023-04-11T04:17:30.156Z,8.32
2023-04-11T04:20:33.184Z,11.85
2023-04-11T04:23:36.467Z,8.82
2023-04-11T04:27:01.079Z,9.70
2023-04-11T04:30:19.396Z,10.00
2023-04-11T04:33:43.083Z,8.60
2023-04-11T04:36:56.728Z,8.98
2023-04-11T04:40:09.100Z,9.27
2023-04-11T04:43:25.314Z,9.30
2023-04-11T04:46:36.960Z,9.15
2023-04-11T04:49:40.967Z,8.55
2023-04-11T04:52:43.232Z,10.85
2023-04-11T04:55:46.612Z,9.57
2023-04-11T04:58:51.730Z,9.80
2023-04-11T05:01:55.276Z,9.10
2023-04-11T05:05:04.519Z,8.82
2023-04-11T05:08:08.866Z,7.88
2023-04-11T05:11:13.290Z,9.18
2023-04-11T05:14:17.444Z,13.57
2023-04-11T05:17:20.213Z,9.10
2023-04-11T05:20:24.883Z,9.30
2023-04-11T05:23:27.213Z,9.82
2023-04-11T05:26:31.982Z,8.85
2023-04-11T05:29:34.297Z,9.65
2023-04-11T05:32:37.923Z,9.77
2023-04-11T05:35:40.751Z,10.13
2023-04-11T05:38:46.590Z,8.68
2023-04-11T05:41:48.959Z,8.50
2023-04-11T05:44:51.281Z,11.50
2023-04-11T05:47:53.643Z,8.88
2023-04-11T05:50:58.263Z,9.63
2023-04-11T05:54:00.585Z,9.00
2023-04-11T05:57:03.657Z,10.27
2023-04-11T06:00:12.785Z,8.82
2023-04-11T06:03:15.191Z,11.70
2023-04-11T06:06:17.489Z,9.05
2023-04-11T06:09:20.068Z,13.35
2023-04-11T06:12:22.270Z,9.68
2023-04-11T06:15:25.825Z,9.43
2023-04-11T06:18:28.214Z,9.02
2023-04-11T06:21:32.117Z,9.43
2023-04-11T06:24:39.843Z,8.15
2023-04-11T06:27:42.525Z,7.65
2023-04-11T06:30:44.807Z,9.98
2023-04-11T06:33:47.080Z,9.75
2023-04-11T06:36:50.162Z,10.50
2023-04-11T06:39:52.461Z,11.68
2023-04-11T06:42:56.082Z,8.68
2023-04-11T06:45:58.701Z,10.43
2023-04-11T06:49:01.240Z,8.40
2023-04-11T06:52:03.840Z,8.02
2023-04-11T06:55:07.490Z,7.63
2023-04-11T06:58:10.013Z,7.65
2023-04-11T07:01:14.512Z,8.10
2023-04-11T07:04:17.372Z,8.63
2023-04-11T07:07:19.829Z,8.45
2023-04-11T07:10:22.135Z,9.18
2023-04-11T07:13:24.574Z,7.95
2023-04-11T07:16:27.834Z,8.07
2023-04-11T07:19:30.136Z,9.35
2023-04-11T07:22:32.395Z,8.50
2023-04-11T07:25:34.829Z,7.07
2023-04-11T07:28:38.912Z,8.68
2023-04-11T07:31:41.755Z,7.50
2023-04-11T07:34:44.067Z,9.57
2023-04-11T07:37:46.567Z,9.60
2023-04-11T07:40:48.897Z,9.20
2023-04-11T07:43:51.521Z,8.52
2023-04-11T07:46:53.815Z,8.25
2023-04-11T07:49:56.098Z,6.55
2023-04-11T07:52:58.442Z,8.10
2023-04-11T07:56:01.053Z,7.95
2023-04-11T07:59:03.552Z,7.28
2023-04-11T08:02:08.346Z,6.65
2023-04-11T08:05:10.823Z,7.28
2023-04-11T08:08:14.085Z,9.93
2023-04-11T08:11:16.646Z,7.10
2023-04-11T08:14:19.021Z,6.82
2023-04-11T08:17:28.058Z,6.70
2023-04-11T08:20:31.256Z,7.07
2023-04-11T08:23:33.528Z,7.10
2023-04-11T08:26:35.858Z,8.40
2023-04-11T08:29:38.042Z,8.05
2023-04-11T08:32:41.420Z,5.95
2023-04-11T08:35:43.813Z,6.38
2023-04-11T08:38:46.317Z,7.13
2023-04-11T08:41:48.703Z,6.95
2023-04-11T08:44:53.852Z,6.95
2023-04-11T08:47:56.182Z,7.63
2023-04-11T08:50:58.571Z,6.35
2023-04-11T08:54:05.896Z,6.57
2023-04-11T08:57:08.385Z,7.35
2023-04-11T09:00:14.442Z,7.07
2023-04-11T09:03:17.738Z,6.70
2023-04-11T09:06:20.258Z,6.43
2023-04-11T09:09:31.029Z,8.32
2023-04-11T09:12:33.556Z,5.35
2023-04-11T09:15:35.980Z,6.68
2023-04-11T09:18:40.247Z,6.85
2023-04-11T09:21:50.304Z,6.03
2023-04-11T09:25:03.822Z,5.50
2023-04-11T09:28:11.050Z,7.00
2023-04-11T09:31:13.882Z,6.72
2023-04-11T09:34:27.913Z,4.80
2023-04-11T09:37:43.144Z,6.25
2023-04-11T09:40:45.385Z,6.03
2023-04-11T09:43:58.222Z,6.28
2023-04-11T09:47:00.792Z,7.68
2023-04-11T09:50:03.577Z,6.35
2023-04-11T09:53:09.230Z,6.07
2023-04-11T09:56:12.334Z,6.15
2023-04-11T09:59:18.009Z,5.50
2023-04-11T10:02:21.082Z,5.53
2023-04-11T10:05:28.601Z,6.35
2023-04-11T10:08:36.128Z,7.00
2023-04-11T10:11:41.751Z,6.07
2023-04-11T10:14:45.135Z,7.43
2023-04-11T10:18:13.937Z,7.05
2023-04-11T10:21:33.015Z,8.00
2023-04-11T10:24:35.543Z,6.25
2023-04-11T10:27:54.820Z,5.78
2023-04-11T10:31:04.877Z,9.23
2023-04-11T10:34:16.484Z,7.10
2023-04-11T10:37:31.026Z,7.22
2023-04-11T10:40:33.765Z,9.38
2023-04-11T10:43:39.160Z,7.95
2023-04-11T10:46:54.280Z,7.78
2023-04-11T10:49:56.856Z,8.52
2023-04-11T10:52:59.917Z,7.88
2023-04-11T10:56:02.731Z,7.50
2023-04-11T10:59:04.958Z,8.55
2023-04-11T11:02:07.471Z,7.18
2023-04-11T11:05:17.098Z,8.85
2023-04-11T11:08:30.700Z,8.27
2023-04-11T11:11:33.174Z,7.90
2023-04-11T11:14:36.066Z,9.73
2023-04-11T11:17:38.498Z,9.90
2023-04-11T11:20:40.894Z,9.25
2023-04-11T11:24:03.585Z,7.82
2023-04-11T11:27:05.920Z,10.77
2023-04-11T11:30:12.112Z,9.13
2023-04-11T11:33:19.381Z,8.68
2023-04-11T11:36:21.718Z,8.48
2023-04-11T11:39:24.768Z,8.80
2023-04-11T11:42:28.167Z,8.55
2023-04-11T11:45:30.611Z,9.80
2023-04-11T11:48:32.854Z,10.85
2023-04-11T11:51:41.940Z,9.68
2023-04-11T11:54:48.146Z,10.00
2023-04-11T11:57:51.037Z,9.73
2023-04-11T12:00:54.192Z,9.35
2023-04-11T12:03:58.379Z,11.13
2023-04-11T12:07:09.133Z,9.98
2023-04-11T12:10:16.592Z,10.27
2023-04-11T12:13:23.827Z,9.05
2023-04-11T12:16:26.411Z,8.88
2023-04-11T12:19:29.116Z,7.55
2023-04-11T12:22:31.300Z,10.00
2023-04-11T12:25:33.634Z,9.60
2023-04-11T12:28:36.008Z,10.95
2023-04-11T12:31:38.288Z,9.80
2023-04-11T12:34:40.555Z,9.25
2023-04-11T12:37:42.960Z,8.02
2023-04-11T12:40:45.706Z,10.65
2023-04-11T12:43:47.932Z,7.57
2023-04-11T12:46:50.251Z,7.68
2023-04-11T12:49:52.523Z,8.95
2023-04-11T12:52:56.265Z,7.55
2023-04-11T12:55:58.775Z,11.20
2023-04-11T12:59:01.275Z,8.40
2023-04-11T13:02:03.743Z,9.30
2023-04-11T13:05:09.283Z,8.75
2023-04-11T13:08:11.765Z,9.50
2023-04-11T13:11:14.025Z,10.13
2023-04-11T13:14:16.426Z,9.57
2023-04-11T13:17:18.739Z,9.18
2023-04-11T13:20:21.135Z,8.38
2023-04-11T13:23:23.346Z,7.60
2023-04-11T13:26:25.672Z,9.23
2023-04-11T13:29:27.856Z,8.57
2023-04-11T13:32:30.095Z,8.85
2023-04-11T13:35:32.401Z,10.82
2023-04-11T13:38:34.745Z,7.65
2023-04-11T13:41:37.080Z,9.15
2023-04-11T13:44:39.406Z,7.18
2023-04-11T13:47:41.755Z,9.73
2023-04-11T13:50:44.046Z,7.30
2023-04-11T13:53:46.355Z,7.18
2023-04-11T13:56:48.623Z,8.57
2023-04-11T13:59:51.178Z,8.10
2023-04-11T14:02:53.764Z,7.05
2023-04-11T14:05:56.313Z,8.15
2023-04-11T14:08:59.111Z,6.90
2023-04-11T14:12:01.707Z,8.57
2023-04-11T14:15:05.542Z,7.43
2023-04-11T14:18:07.814Z,7.07
2023-04-11T14:21:10.233Z,7.32
2023-04-11T14:24:12.551Z,7.55
2023-04-11T14:27:14.931Z,7.72
2023-04-11T14:30:17.117Z,7.88
2023-04-11T14:33:19.428Z,7.35
2023-04-11T14:36:21.804Z,8.25
2023-04-11T14:39:24.180Z,7.60
2023-04-11T14:42:26.490Z,9.20
2023-04-11T14:45:28.783Z,7.50
2023-04-11T14:48:31.211Z,6.65
2023-04-11T14:51:33.552Z,7.35
2023-04-11T14:54:35.951Z,7.93
2023-04-11T14:57:53.881Z,9.65
2023-04-11T15:00:56.211Z,7.68
2023-04-11T15:03:58.856Z,6.00
2023-04-11T15:07:01.812Z,6.18
2023-04-11T15:10:04.246Z,5.75
2023-04-11T15:13:09.132Z,8.10
2023-04-11T15:16:11.931Z,5.95
2023-04-11T15:19:14.207Z,6.10
2023-04-11T15:22:16.406Z,6.22
2023-04-11T15:25:18.666Z,7.80
2023-04-11T15:28:21.626Z,7.82
2023-04-11T15:31:25.790Z,5.97
2023-04-11T15:34:28.158Z,7.03
2023-04-11T15:37:30.400Z,7.32
2023-04-11T15:40:32.683Z,6.47
2023-04-11T15:43:34.971Z,7.18
2023-04-11T15:46:37.317Z,7.88
2023-04-11T15:49:40.067Z,7.22
2023-04-11T15:52:43.096Z,7.07
2023-04-11T15:55:47.249Z,5.53
2023-04-11T15:58:49.582Z,5.72
2023-04-11T16:01:52.350Z,7.72
2023-04-11T16:04:56.177Z,7.20
2023-04-11T16:07:59.604Z,6.72
2023-04-11T16:11:01.921Z,6.30
2023-04-11T16:14:04.220Z,5.47
2023-04-11T16:17:06.569Z,6.32
2023-04-11T16:20:12.069Z,7.53
2023-04-11T16:23:14.679Z,5.55
2023-04-11T16:26:17.086Z,5.25
2023-04-11T16:29:19.432Z,5.97
2023-04-11T16:32:21.842Z,5.55
2023-04-11T16:35:24.138Z,6.30
2023-04-11T16:38:26.529Z,7.13
2023-04-11T16:41:28.882Z,7.93
2023-04-11T16:44:31.493Z,5.40
2023-04-11T16:47:33.910Z,6.03
2023-04-11T16:50:36.422Z,4.68
2023-04-11T16:53:39.558Z,6.10
2023-04-11T16:56:41.812Z,5.93
2023-04-11T16:59:44.228Z,5.82
2023-04-11T17:02:47.345Z,5.10
2023-04-11T17:05:49.982Z,5.53
2023-04-11T17:08:53.074Z,6.00
2023-04-11T17:11:55.549Z,4.70
2023-04-11T17:15:00.586Z,5.50
2023-04-11T17:18:03.212Z,6.15
2023-04-11T17:21:06.395Z,5.68
2023-04-11T17:24:08.712Z,5.38
2023-04-11T17:27:11.013Z,6.47
2023-04-11T17:30:13.874Z,5.15
2023-04-11T17:33:17.082Z,7.45
2023-04-11T17:36:19.487Z,5.65
2023-04-11T17:39:22.162Z,5.50
2023-04-11T17:42:24.590Z,4.80
2023-04-11T17:45:27.393Z,4.80
2023-04-11T17:48:29.730Z,5.15
2023-04-11T17:51:31.919Z,6.43
2023-04-11T17:54:34.659Z,6.40
2023-04-11T17:57:36.998Z,6.63
2023-04-11T18:00:52.538Z,4.93
2023-04-11T18:04:02.645Z,5.47
2023-04-11T18:07:07.158Z,5.40
2023-04-11T18:10:13.136Z,5.45
2023-04-11T18:13:15.503Z,4.60
2023-04-11T18:16:18.251Z,5.55
2023-04-11T18:19:20.669Z,4.38
2023-04-11T18:22:22.847Z,4.97
2023-04-11T18:25:25.298Z,6.32
2023-04-11T18:28:27.591Z,4.13
2023-04-11T18:31:35.164Z,4.97
2023-04-11T18:34:37.581Z,5.38
2023-04-11T18:37:41.712Z,5.45
2023-04-11T18:40:44.058Z,5.15
2023-04-11T18:43:46.380Z,6.38
2023-04-11T18:46:50.327Z,5.70
2023-04-11T18:49:53.893Z,6.72
2023-04-11T18:52:58.958Z,4.78
2023-04-11T18:56:04.246Z,6.20
2023-04-11T18:59:09.733Z,5.35
2023-04-11T19:02:14.417Z,6.97
2023-04-11T19:05:18.976Z,6.53
2023-04-11T19:08:21.556Z,5.88
2023-04-11T19:11:23.795Z,6.28
2023-04-11T19:14:26.344Z,6.10
2023-04-11T19:17:28.615Z,7.78
2023-04-11T19:20:30.806Z,7.70
2023-04-11T19:23:33.177Z,7.38
2023-04-11T19:26:35.534Z,6.38
2023-04-11T19:29:37.750Z,6.40
2023-04-11T19:32:44.008Z,5.80
2023-04-11T19:35:47.839Z,6.68
2023-04-11T19:38:50.262Z,4.88
2023-04-11T19:41:52.534Z,5.13
2023-04-11T19:44:54.970Z,4.82
2023-04-11T19:47:57.222Z,6.25
2023-04-11T19:51:01.128Z,7.68
2023-04-11T19:54:04.690Z,5.88
2023-04-11T19:57:07.155Z,6.38
2023-04-11T20:00:17.667Z,5.32
2023-04-11T20:03:21.184Z,6.20
2023-04-11T20:06:23.691Z,6.57
2023-04-11T20:09:26.236Z,6.88
2023-04-11T20:12:28.443Z,5.50
2023-04-11T20:15:31.283Z,6.40
2023-04-11T20:18:34.725Z,4.68
2023-04-11T20:21:37.016Z,5.45
2023-04-11T20:24:39.332Z,4.47
2023-04-11T20:27:42.715Z,6.32
2023-04-11T20:30:44.935Z,7.25
2023-04-11T20:33:47.447Z,5.60
2023-04-11T20:36:49.709Z,6.10
2023-04-11T20:39:52.008Z,5.93
2023-04-11T20:42:56.489Z,5.78
2023-04-11T20:45:58.845Z,8.23
2023-04-11T20:49:02.342Z,7.65
2023-04-11T20:52:04.694Z,6.82
2023-04-11T20:55:08.610Z,5.70
2023-04-11T20:58:12.127Z,6.47
2023-04-11T21:01:15.690Z,7.15
2023-04-11T21:04:18.881Z,8.85
2023-04-11T21:07:21.624Z,6.78
2023-04-11T21:10:24.406Z,6.38
2023-04-11T21:13:26.684Z,8.23
2023-04-11T21:16:29.239Z,7.32
2023-04-11T21:19:31.614Z,7.00
2023-04-11T21:22:35.336Z,7.43
2023-04-11T21:25:38.144Z,7.90
2023-04-11T21:28:40.583Z,7.95
2023-04-11T21:31:42.865Z,7.15
2023-04-11T21:34:45.174Z,8.35
2023-04-11T21:37:49.227Z,7.45
2023-04-11T21:40:52.351Z,9.95
2023-04-11T21:43:54.664Z,8.32
2023-04-11T21:46:57.204Z,7.85
2023-04-11T21:49:59.590Z,8.63
2023-04-11T21:53:01.910Z,9.57
2023-04-11T21:56:06.862Z,9.75
2023-04-11T21:59:09.285Z,8.07
2023-04-11T22:02:11.917Z,10.05
2023-04-11T22:05:14.325Z,8.43
2023-04-11T22:08:20.374Z,10.25
2023-04-11T22:11:22.863Z,9.07
2023-04-11T22:14:27.390Z,8.82
2023-04-11T22:17:31.546Z,9.70
2023-04-11T22:20:34.545Z,10.55
2023-04-11T22:23:36.906Z,8.43
2023-04-11T22:26:46.555Z,9.75
2023-04-11T22:29:49.760Z,10.25
2023-04-11T22:32:54.383Z,8.73
2023-04-11T22:35:58.598Z,8.88
2023-04-11T22:39:01.490Z,8.95
2023-04-11T22:42:03.878Z,9.48
2023-04-11T22:45:07.210Z,9.20
2023-04-11T22:48:09.503Z,7.43
2023-04-11T22:51:14.333Z,7.85
2023-04-11T22:54:16.541Z,8.25
2023-04-11T22:57:19.083Z,9.00
2023-04-11T23:00:24.206Z,8.13
2023-04-11T23:03:28.823Z,9.93
2023-04-11T23:06:31.215Z,8.38
2023-04-11T23:09:33.488Z,9.45
2023-04-11T23:12:35.656Z,10.23
2023-04-11T23:15:37.879Z,9.15
2023-04-11T23:18:40.155Z,9.77
2023-04-11T23:21:43.277Z,9.57
2023-04-11T23:24:45.807Z,8.88
2023-04-11T23:27:48.079Z,9.82
2023-04-11T23:30:50.379Z,8.45
2023-04-11T23:33:53.861Z,9.57
2023-04-11T23:36:57.801Z,7.60
2023-04-11T23:40:00.731Z,8.77
2023-04-11T23:43:03.068Z,9.75
2023-04-11T23:46:06.017Z,11.27
2023-04-11T23:49:08.238Z,8.63
2023-04-11T23:52:12.403Z,8.85
2023-04-11T23:55:14.805Z,9.02
2023-04-11T23:58:16.978Z,9.98
